createdAt,value
2018-04-18T00:01:00.860Z,99.90
2018-04-18T00:03:28.698Z,99.90
2018-04-18T00:05:56.666Z,99.90
2018-04-18T00:08:24.481Z,99.90
2018-04-18T00:10:52.267Z,99.90
2018-04-18T00:13:20.865Z,99.90
2018-04-18T00:15:48.734Z,99.90
2018-04-18T00:18:16.538Z,99.90
2018-04-18T00:20:44.318Z,99.90
2018-04-18T00:23:12.111Z,99.90
2018-04-18T00:25:40.730Z,99.90
2018-04-18T00:28:08.573Z,99.90
2018-04-18T00:30:37.182Z,99.90
2018-04-18T00:33:04.927Z,99.90
2018-04-18T00:35:33.577Z,99.90
2018-04-18T00:38:01.337Z,99.90
2018-04-18T00:40:29.055Z,99.90
2018-04-18T00:42:56.941Z,99.90
2018-04-18T00:45:24.784Z,99.90
2018-04-18T00:47:52.702Z,99.90
2018-04-18T00:50:20.590Z,99.90
2018-04-18T00:52:49.168Z,99.90
2018-04-18T00:55:17.001Z,99.90
2018-04-18T00:57:44.896Z,99.90
2018-04-18T01:00:12.712Z,99.90
2018-04-18T01:02:40.724Z,99.90
2018-04-18T01:05:08.612Z,99.90
2018-04-18T01:07:36.561Z,99.90
2018-04-18T01:10:04.428Z,99.90
2018-04-18T01:12:32.326Z,99.90
2018-04-18T01:17:35.167Z,99.90
2018-04-18T01:20:03.039Z,99.90
2018-04-18T01:22:30.915Z,99.90
2018-04-18T01:24:58.786Z,99.90
2018-04-18T01:27:26.587Z,99.90
2018-04-18T01:29:55.232Z,99.90
2018-04-18T01:32:23.118Z,99.90
2018-04-18T01:34:50.970Z,99.90
2018-04-18T01:37:18.748Z,99.90
2018-04-18T01:39:46.611Z,99.90
2018-04-18T01:42:15.270Z,99.90
2018-04-18T01:44:43.024Z,99.90
2018-04-18T01:47:10.873Z,99.90
2018-04-18T01:49:39.673Z,99.90
2018-04-18T01:52:07.486Z,99.90
2018-04-18T01:54:36.066Z,99.90
2018-04-18T01:57:03.842Z,99.90
2018-04-18T01:59:31.666Z,99.90
2018-04-18T02:01:59.520Z,99.90
2018-04-18T02:04:27.326Z,99.90
2018-04-18T02:06:55.142Z,99.90
2018-04-18T02:09:23.001Z,99.90
2018-04-18T02:11:50.880Z,99.90
2018-04-18T02:14:18.745Z,99.90
2018-04-18T02:16:46.590Z,99.90
2018-04-18T02:19:15.194Z,99.90
2018-04-18T02:21:43.051Z,99.90
2018-04-18T02:24:11.037Z,99.90
2018-04-18T02:26:38.962Z,99.90
2018-04-18T02:29:06.793Z,99.90
2018-04-18T02:31:34.745Z,99.90
2018-04-18T02:34:02.591Z,99.90
2018-04-18T02:36:30.396Z,99.90
2018-04-18T02:38:58.273Z,99.90
2018-04-18T02:41:26.245Z,99.90
2018-04-18T02:43:54.155Z,99.90
2018-04-18T02:46:22.854Z,99.90
2018-04-18T02:48:50.703Z,99.90
2018-04-18T02:51:19.263Z,99.90
2018-04-18T02:53:47.263Z,99.90
2018-04-18T02:56:15.118Z,99.90
2018-04-18T02:58:43.875Z,99.90
2018-04-18T03:01:11.780Z,99.90
2018-04-18T03:03:40.515Z,99.90
2018-04-18T03:06:09.291Z,99.90
2018-04-18T03:08:37.199Z,99.90
2018-04-18T03:11:05.124Z,99.90
2018-04-18T03:13:33.007Z,99.90
2018-04-18T03:16:01.793Z,99.90
2018-04-18T03:18:29.746Z,99.90
2018-04-18T03:20:57.619Z,99.90
2018-04-18T03:23:25.595Z,99.90
2018-04-18T03:25:53.584Z,99.90
2018-04-18T03:28:21.482Z,99.90
2018-04-18T03:30:50.279Z,99.90
2018-04-18T03:33:18.894Z,99.90
2018-04-18T03:35:46.794Z,99.90
2018-04-18T03:38:14.758Z,99.90
2018-04-18T03:40:42.585Z,99.90
2018-04-18T03:43:10.470Z,99.90
2018-04-18T03:45:38.445Z,99.90
2018-04-18T03:48:06.363Z,99.90
2018-04-18T03:50:35.177Z,99.90
2018-04-18T03:53:03.074Z,99.90
2018-04-18T03:55:31.797Z,99.90
2018-04-18T03:58:00.488Z,99.90
2018-04-18T04:00:29.138Z,99.90
2018-04-18T04:02:57.061Z,99.90
2018-04-18T04:05:24.980Z,99.90
2018-04-18T04:07:52.878Z,99.90
2018-04-18T04:10:21.567Z,99.90
2018-04-18T04:12:50.179Z,99.90
2018-04-18T04:15:18.046Z,99.90
2018-04-18T04:17:57.815Z,99.90
2018-04-18T04:20:37.337Z,99.90
2018-04-18T04:23:17.055Z,99.90
2018-04-18T04:25:45.737Z,99.90
2018-04-18T04:28:14.328Z,99.90
2018-04-18T04:30:42.972Z,99.90
2018-04-18T04:33:11.192Z,99.90
2018-04-18T04:35:39.039Z,99.90
2018-04-18T04:38:07.708Z,99.90
2018-04-18T04:40:35.611Z,99.90
2018-04-18T04:43:04.269Z,99.90
2018-04-18T04:45:32.097Z,99.90
2018-04-18T04:48:00.036Z,99.90
2018-04-18T04:50:27.955Z,99.90
2018-04-18T04:52:55.797Z,99.90
2018-04-18T04:55:23.759Z,99.90
2018-04-18T04:57:51.721Z,99.90
2018-04-18T05:00:19.571Z,99.90
2018-04-18T05:02:47.574Z,99.90
2018-04-18T05:05:15.423Z,99.90
2018-04-18T05:07:43.293Z,99.90
2018-04-18T05:10:11.275Z,99.90
2018-04-18T05:12:39.129Z,99.90
2018-04-18T05:15:06.941Z,99.90
2018-04-18T05:17:34.857Z,99.90
2018-04-18T05:20:02.670Z,99.90
2018-04-18T05:22:30.606Z,99.90
2018-04-18T05:24:58.594Z,99.90
2018-04-18T05:27:26.538Z,99.90
2018-04-18T05:29:54.429Z,99.90
2018-04-18T05:32:22.431Z,99.90
2018-04-18T05:34:51.317Z,99.90
2018-04-18T05:37:19.272Z,99.90
2018-04-18T05:39:47.194Z,99.90
2018-04-18T05:42:15.106Z,99.90
2018-04-18T05:44:42.991Z,99.90
2018-04-18T05:47:10.905Z,99.90
2018-04-18T05:49:38.766Z,99.90
2018-04-18T05:52:06.600Z,99.90
2018-04-18T05:54:35.368Z,99.90
2018-04-18T05:57:03.285Z,99.90
2018-04-18T05:59:31.138Z,99.90
2018-04-18T06:01:59.798Z,99.90
2018-04-18T06:04:28.435Z,99.90
2018-04-18T06:06:56.433Z,99.90
2018-04-18T06:09:24.516Z,99.90
2018-04-18T06:11:52.369Z,99.90
2018-04-18T06:14:20.258Z,99.90
2018-04-18T06:16:48.228Z,99.90
2018-04-18T06:19:16.034Z,99.90
2018-04-18T06:21:43.941Z,99.90
2018-04-18T06:24:11.938Z,99.90
2018-04-18T06:26:40.598Z,99.90
2018-04-18T06:29:08.518Z,99.90
2018-04-18T06:31:36.428Z,99.90
2018-04-18T06:34:04.200Z,99.90
2018-04-18T06:36:31.974Z,99.90
2018-04-18T06:38:59.880Z,99.90
2018-04-18T06:41:27.780Z,99.90
2018-04-18T06:43:55.633Z,99.90
2018-04-18T06:46:23.549Z,99.90
2018-04-18T06:48:52.296Z,99.90
2018-04-18T06:51:20.129Z,99.90
2018-04-18T06:53:48.808Z,99.90
2018-04-18T06:56:17.353Z,99.90
2018-04-18T06:58:45.476Z,99.90
2018-04-18T07:01:13.322Z,99.90
2018-04-18T07:03:41.222Z,99.90
2018-04-18T07:06:09.083Z,99.90
2018-04-18T07:08:36.947Z,99.90
2018-04-18T07:11:04.875Z,99.90
2018-04-18T07:13:32.747Z,99.90
2018-04-18T07:16:00.690Z,99.90
2018-04-18T07:18:28.587Z,99.90
2018-04-18T07:20:56.522Z,99.30
2018-04-18T07:23:24.412Z,98.40
2018-04-18T07:25:52.437Z,97.50
2018-04-18T07:28:20.335Z,98.20
2018-04-18T07:30:48.291Z,95.50
2018-04-18T07:33:16.170Z,96.80
2018-04-18T07:35:44.050Z,94.50
2018-04-18T07:38:12.051Z,93.20
2018-04-18T07:40:40.652Z,90.30
2018-04-18T07:43:08.583Z,90.20
2018-04-18T07:45:36.496Z,90.00
2018-04-18T07:48:04.360Z,91.40
2018-04-18T07:50:32.267Z,90.40
2018-04-18T07:53:00.962Z,86.70
2018-04-18T07:55:29.183Z,86.70
2018-04-18T07:57:57.143Z,82.70
2018-04-18T08:00:25.797Z,79.60
2018-04-18T08:02:53.761Z,79.60
2018-04-18T08:05:21.664Z,76.30
2018-04-18T08:07:50.393Z,71.10
2018-04-18T08:10:18.343Z,71.00
2018-04-18T08:12:46.272Z,71.50
2018-04-18T08:15:14.281Z,71.10
2018-04-18T08:17:42.196Z,71.00
2018-04-18T08:20:10.068Z,71.60
2018-04-18T08:22:38.156Z,66.80
2018-04-18T08:25:06.131Z,62.80
2018-04-18T08:27:34.889Z,62.20
2018-04-18T08:30:02.936Z,62.00
2018-04-18T08:32:30.868Z,59.40
2018-04-18T08:34:58.795Z,58.70
2018-04-18T08:37:26.880Z,59.00
2018-04-18T08:39:54.853Z,59.20
2018-04-18T08:42:23.489Z,56.50
2018-04-18T08:44:51.327Z,56.00
2018-04-18T08:47:19.828Z,54.60
2018-04-18T08:49:47.760Z,54.50
2018-04-18T08:52:16.334Z,52.80
2018-04-18T08:54:44.273Z,52.70
2018-04-18T08:57:12.290Z,51.00
2018-04-18T08:59:41.012Z,52.30
2018-04-18T09:02:09.023Z,52.30
2018-04-18T09:04:36.948Z,47.10
2018-04-18T09:07:05.004Z,47.40
2018-04-18T09:09:32.936Z,50.40
2018-04-18T09:12:01.706Z,49.70
2018-04-18T09:14:29.725Z,49.60
2018-04-18T09:16:57.751Z,50.60
2018-04-18T09:19:25.720Z,50.60
2018-04-18T09:21:54.501Z,49.10
2018-04-18T09:24:22.408Z,49.10
2018-04-18T09:26:51.105Z,48.20
2018-04-18T09:29:19.871Z,48.80
2018-04-18T09:31:48.576Z,49.10
2018-04-18T09:34:16.505Z,49.00
2018-04-18T09:36:44.544Z,50.00
2018-04-18T09:39:12.390Z,46.80
2018-04-18T09:41:40.328Z,44.70
2018-04-18T09:44:08.280Z,45.60
2018-04-18T09:46:36.184Z,44.80
2018-04-18T09:49:04.859Z,46.30
2018-04-18T09:51:33.680Z,44.80
2018-04-18T09:54:01.634Z,44.60
2018-04-18T09:56:29.552Z,43.90
2018-04-18T09:58:57.556Z,42.00
2018-04-18T10:01:31.865Z,42.10
2018-04-18T10:04:05.320Z,42.00
2018-04-18T10:06:33.171Z,41.40
2018-04-18T10:09:00.910Z,40.60
2018-04-18T10:11:29.506Z,40.10
2018-04-18T10:13:57.458Z,40.10
2018-04-18T10:16:26.150Z,39.60
2018-04-18T10:18:54.996Z,40.00
2018-04-18T10:21:22.867Z,40.00
2018-04-18T10:23:50.759Z,39.00
2018-04-18T10:26:18.812Z,39.30
2018-04-18T10:28:46.731Z,37.60
2018-04-18T10:31:14.581Z,37.90
2018-04-18T10:33:43.337Z,37.70
2018-04-18T10:36:11.304Z,37.70
2018-04-18T10:38:40.738Z,36.20
2018-04-18T10:41:09.505Z,36.90
2018-04-18T10:43:37.477Z,36.80
2018-04-18T10:46:05.434Z,35.80
2018-04-18T10:48:33.501Z,34.60
2018-04-18T10:51:01.497Z,34.10
2018-04-18T10:53:30.156Z,34.30
2018-04-18T10:55:58.147Z,34.20
2018-04-18T10:58:26.945Z,34.40
2018-04-18T11:00:55.628Z,36.00
2018-04-18T11:03:24.424Z,33.60
2018-04-18T11:05:53.131Z,32.50
2018-04-18T11:08:20.985Z,32.50
2018-04-18T11:10:49.789Z,32.30
2018-04-18T11:13:17.798Z,32.30
2018-04-18T11:15:45.768Z,33.40
2018-04-18T11:18:13.825Z,34.20
2018-04-18T11:20:41.725Z,31.00
2018-04-18T11:23:09.645Z,30.40
2018-04-18T11:25:37.801Z,30.20
2018-04-18T11:28:05.697Z,29.60
2018-04-18T11:30:33.832Z,29.60
2018-04-18T11:33:02.578Z,30.00
2018-04-18T11:35:30.593Z,29.90
2018-04-18T11:37:59.310Z,29.50
2018-04-18T11:40:27.280Z,29.90
2018-04-18T11:42:55.294Z,29.80
2018-04-18T11:45:23.259Z,30.50
2018-04-18T11:47:51.247Z,30.30
2018-04-18T11:50:19.932Z,31.00
2018-04-18T11:52:48.577Z,30.00
2018-04-18T11:55:16.561Z,29.60
2018-04-18T11:57:44.560Z,30.20
2018-04-18T12:00:13.176Z,29.60
2018-04-18T12:02:41.156Z,29.60
2018-04-18T12:05:09.061Z,28.60
2018-04-18T12:07:37.030Z,29.90
2018-04-18T12:10:05.018Z,28.80
2018-04-18T12:12:33.702Z,28.90
2018-04-18T12:15:02.378Z,29.00
2018-04-18T12:17:30.305Z,28.90
2018-04-18T12:19:58.286Z,28.10
2018-04-18T12:22:26.320Z,29.00
2018-04-18T12:24:54.276Z,28.90
2018-04-18T12:27:22.890Z,28.40
2018-04-18T12:29:51.110Z,28.30
2018-04-18T12:32:19.093Z,29.10
2018-04-18T12:34:47.899Z,28.80
2018-04-18T12:37:15.863Z,28.70
2018-04-18T12:39:44.563Z,28.10
2018-04-18T12:42:12.585Z,28.10
2018-04-18T12:44:40.476Z,28.90
2018-04-18T12:47:08.545Z,28.90
2018-04-18T12:49:36.487Z,28.70
2018-04-18T12:52:04.830Z,29.50
2018-04-18T12:54:33.567Z,29.20
2018-04-18T12:57:01.451Z,29.20
2018-04-18T12:59:30.175Z,29.00
2018-04-18T13:01:58.138Z,29.00
2018-04-18T13:04:26.202Z,28.60
2018-04-18T13:06:54.517Z,28.40
2018-04-18T13:09:22.572Z,28.30
2018-04-18T13:11:50.585Z,28.20
2018-04-18T13:14:18.556Z,28.80
2018-04-18T13:16:46.537Z,28.60
2018-04-18T13:19:15.166Z,28.10
2018-04-18T13:21:43.173Z,28.10
2018-04-18T13:24:11.192Z,27.90
2018-04-18T13:26:39.198Z,27.50
2018-04-18T13:29:07.171Z,28.40
2018-04-18T13:31:35.249Z,27.60
2018-04-18T13:34:03.169Z,28.00
2018-04-18T13:36:31.111Z,28.60
2018-04-18T13:38:59.900Z,28.00
2018-04-18T13:41:27.820Z,28.00
2018-04-18T13:43:55.732Z,27.80
2018-04-18T13:46:24.584Z,28.70
2018-04-18T13:48:52.483Z,28.60
2018-04-18T13:51:21.325Z,27.90
2018-04-18T13:53:49.331Z,27.90
2018-04-18T13:56:17.269Z,28.50
2018-04-18T13:58:45.419Z,27.60
2018-04-18T14:01:13.342Z,28.20
2018-04-18T14:03:41.225Z,27.90
2018-04-18T14:06:09.149Z,27.90
2018-04-18T14:08:37.087Z,27.80
2018-04-18T14:11:04.999Z,27.00
2018-04-18T14:13:32.849Z,27.30
2018-04-18T14:16:00.763Z,27.30
2018-04-18T14:18:28.777Z,27.10
2018-04-18T14:20:56.755Z,27.80
2018-04-18T14:23:24.797Z,28.10
2018-04-18T14:25:52.701Z,27.60
2018-04-18T14:28:20.587Z,27.90
2018-04-18T14:30:48.738Z,28.00
2018-04-18T14:33:16.623Z,27.40
2018-04-18T14:35:44.559Z,28.20
2018-04-18T14:38:12.682Z,27.00
2018-04-18T14:40:40.525Z,27.90
2018-04-18T14:43:09.307Z,27.30
2018-04-18T14:45:37.361Z,27.30
2018-04-18T14:48:05.228Z,27.70
2018-04-18T14:50:33.273Z,28.10
2018-04-18T14:53:01.213Z,28.20
2018-04-18T14:55:29.102Z,28.10
2018-04-18T14:57:57.099Z,28.30
2018-04-18T15:00:25.054Z,27.10
2018-04-18T15:02:53.041Z,27.10
2018-04-18T15:05:21.096Z,27.40
2018-04-18T15:07:49.076Z,27.80
2018-04-18T15:10:17.001Z,27.90
2018-04-18T15:12:45.663Z,28.00
2018-04-18T15:15:13.666Z,28.00
2018-04-18T15:17:41.630Z,28.10
2018-04-18T15:20:09.605Z,28.90
2018-04-18T15:22:38.424Z,28.60
2018-04-18T15:25:06.302Z,28.60
2018-04-18T15:27:34.302Z,28.70
2018-04-18T15:30:02.264Z,28.50
2018-04-18T15:32:30.149Z,28.60
2018-04-18T15:34:58.106Z,28.10
2018-04-18T15:37:26.101Z,29.30
2018-04-18T15:39:54.097Z,29.80
2018-04-18T15:42:22.064Z,29.00
2018-04-18T15:44:50.077Z,29.00
2018-04-18T15:47:17.982Z,28.80
2018-04-18T15:49:46.695Z,29.50
2018-04-18T15:52:14.650Z,29.10
2018-04-18T15:54:43.345Z,29.40
2018-04-18T15:57:11.364Z,29.40
2018-04-18T15:59:39.357Z,29.10
2018-04-18T16:02:07.351Z,30.60
2018-04-18T16:04:36.069Z,30.60
2018-04-18T16:07:04.767Z,30.00
2018-04-18T16:09:32.718Z,30.00
2018-04-18T16:12:00.584Z,30.10
2018-04-18T16:14:28.717Z,30.10
2018-04-18T16:16:57.517Z,30.80
2018-04-18T16:19:26.373Z,30.70
2018-04-18T16:21:54.331Z,30.70
2018-04-18T16:24:22.318Z,30.70
2018-04-18T16:26:50.276Z,30.80
2018-04-18T16:29:30.136Z,31.40
2018-04-18T16:31:58.085Z,30.80
2018-04-18T16:34:26.111Z,30.80
2018-04-18T16:36:54.100Z,31.10
2018-04-18T16:39:22.110Z,32.40
2018-04-18T16:41:50.258Z,31.20
2018-04-18T16:44:18.278Z,30.90
2018-04-18T16:46:47.004Z,32.40
2018-04-18T16:49:14.941Z,31.90
2018-04-18T16:51:43.806Z,33.30
2018-04-18T16:54:11.726Z,32.70
2018-04-18T16:56:39.584Z,32.60
2018-04-18T16:59:07.686Z,33.00
2018-04-18T17:01:35.667Z,32.30
2018-04-18T17:04:03.597Z,32.10
2018-04-18T17:06:31.595Z,32.00
2018-04-18T17:08:59.501Z,32.10
2018-04-18T17:11:28.239Z,32.50
2018-04-18T17:13:56.187Z,32.50
2018-04-18T17:16:24.202Z,32.70
2018-04-18T17:18:52.222Z,33.20
2018-04-18T17:21:20.235Z,34.00
2018-04-18T17:23:48.136Z,33.90
2018-04-18T17:26:16.156Z,34.70
2018-04-18T17:28:44.171Z,34.90
2018-04-18T17:31:12.169Z,36.20
2018-04-18T17:33:40.906Z,35.10
2018-04-18T17:36:08.946Z,35.10
2018-04-18T17:38:37.012Z,35.10
2018-04-18T17:41:05.013Z,35.30
2018-04-18T17:43:32.956Z,36.40
2018-04-18T17:46:00.901Z,36.80
2018-04-18T17:48:29.654Z,37.50
2018-04-18T17:50:57.662Z,37.40
2018-04-18T17:53:26.409Z,38.00
2018-04-18T17:55:54.297Z,38.00
2018-04-18T17:58:22.365Z,38.10
2018-04-18T18:00:50.387Z,38.20
2018-04-18T18:03:18.394Z,38.30
2018-04-18T18:05:46.343Z,39.10
2018-04-18T18:08:14.326Z,39.30
2018-04-18T18:10:42.284Z,39.60
2018-04-18T18:13:10.304Z,39.90
2018-04-18T18:15:39.033Z,41.10
2018-04-18T18:18:07.038Z,41.10
2018-04-18T18:20:35.107Z,41.50
2018-04-18T18:23:03.064Z,41.60
2018-04-18T18:25:30.974Z,42.10
2018-04-18T18:27:59.725Z,42.20
2018-04-18T18:30:27.662Z,42.20
2018-04-18T18:32:55.668Z,42.40
2018-04-18T18:35:23.828Z,42.80
2018-04-18T18:37:51.757Z,42.80
2018-04-18T18:40:19.656Z,43.00
2018-04-18T18:42:47.753Z,43.00
2018-04-18T18:45:15.731Z,42.90
2018-04-18T18:47:44.604Z,43.90
2018-04-18T18:50:12.669Z,43.60
2018-04-18T18:52:40.582Z,44.30
2018-04-18T18:55:09.281Z,46.20
2018-04-18T18:57:37.801Z,46.10
2018-04-18T19:00:05.860Z,46.50
2018-04-18T19:02:33.805Z,47.30
2018-04-18T19:05:01.860Z,47.60
2018-04-18T19:07:30.554Z,46.90
2018-04-18T19:09:58.496Z,46.80
2018-04-18T19:12:26.578Z,47.40
2018-04-18T19:14:55.466Z,48.00
2018-04-18T19:17:24.172Z,49.30
2018-04-18T19:19:52.247Z,48.80
2018-04-18T19:22:20.275Z,49.50
2018-04-18T19:24:48.608Z,50.30
2018-04-18T19:27:16.574Z,51.10
2018-04-18T19:29:44.572Z,51.50
2018-04-18T19:32:13.418Z,52.10
2018-04-18T19:34:42.235Z,52.70
2018-04-18T19:37:10.238Z,52.70
2018-04-18T19:39:38.251Z,52.70
2018-04-18T19:42:07.012Z,52.60
2018-04-18T19:44:34.885Z,52.60
2018-04-18T19:47:02.807Z,53.50
2018-04-18T19:49:30.804Z,53.60
2018-04-18T19:52:00.425Z,54.20
2018-04-18T19:54:28.408Z,54.10
2018-04-18T19:56:57.108Z,54.20
2018-04-18T19:59:25.001Z,54.10
2018-04-18T20:01:52.928Z,55.10
2018-04-18T20:04:21.673Z,55.20
2018-04-18T20:06:49.661Z,55.20
2018-04-18T20:09:17.619Z,56.20
2018-04-18T20:11:45.609Z,56.50
2018-04-18T20:14:13.576Z,56.50
2018-04-18T20:16:41.530Z,56.60
2018-04-18T20:19:09.589Z,56.10
2018-04-18T20:21:37.592Z,56.30
2018-04-18T20:24:05.532Z,56.00
2018-04-18T20:26:33.647Z,57.20
2018-04-18T20:29:01.553Z,57.50
2018-04-18T20:31:29.535Z,57.30
2018-04-18T20:33:57.592Z,58.90
2018-04-18T20:36:25.584Z,59.50
2018-04-18T20:38:53.559Z,60.90
2018-04-18T20:41:21.554Z,60.70
2018-04-18T20:43:49.528Z,61.50
2018-04-18T20:46:18.200Z,62.80
2018-04-18T20:48:46.185Z,61.80
2018-04-18T20:51:14.862Z,62.40
2018-04-18T20:53:42.752Z,62.20
2018-04-18T20:56:10.694Z,63.20
2018-04-18T20:58:38.634Z,65.80
2018-04-18T21:01:06.567Z,68.70
2018-04-18T21:03:34.574Z,69.50
2018-04-18T21:06:02.457Z,70.40
2018-04-18T21:08:30.474Z,70.50
2018-04-18T21:10:58.477Z,71.20
2018-04-18T21:13:26.497Z,71.10
2018-04-18T21:15:55.261Z,71.10
2018-04-18T21:18:23.308Z,71.00
2018-04-18T21:20:51.192Z,72.50
2018-04-18T21:23:19.132Z,73.80
2018-04-18T21:25:47.135Z,75.40
2018-04-18T21:28:15.054Z,75.50
2018-04-18T21:30:43.200Z,76.80
2018-04-18T21:33:11.959Z,75.70
2018-04-18T21:35:39.894Z,75.50
2018-04-18T21:38:07.823Z,76.80
2018-04-18T21:40:36.511Z,78.50
2018-04-18T21:43:05.369Z,78.60
2018-04-18T21:45:33.380Z,78.50
2018-04-18T21:48:02.197Z,80.70
2018-04-18T21:50:30.201Z,80.70
2018-04-18T21:52:58.184Z,81.10
2018-04-18T21:55:26.204Z,81.00
2018-04-18T21:57:54.137Z,83.40
2018-04-18T22:00:22.848Z,84.30
2018-04-18T22:02:50.921Z,84.30
2018-04-18T22:05:19.631Z,85.40
2018-04-18T22:07:47.535Z,85.40
2018-04-18T22:10:15.625Z,84.80
2018-04-18T22:12:43.503Z,85.00
2018-04-18T22:15:12.209Z,86.80
2018-04-18T22:17:40.232Z,86.80
2018-04-18T22:20:08.136Z,87.00
2018-04-18T22:22:36.144Z,87.20
2018-04-18T22:25:04.122Z,87.80
2018-04-18T22:27:32.031Z,88.20
2018-04-18T22:30:00.666Z,89.10
2018-04-18T22:32:28.636Z,89.20
2018-04-18T22:34:56.529Z,90.30
2018-04-18T22:37:24.450Z,90.50
2018-04-18T22:39:52.474Z,90.80
2018-04-18T22:42:20.349Z,90.90
2018-04-18T22:44:49.010Z,90.30
2018-04-18T22:47:17.021Z,90.20
2018-04-18T22:49:45.066Z,91.20
2018-04-18T22:52:13.066Z,91.60
2018-04-18T22:54:41.118Z,91.60
2018-04-18T22:57:09.952Z,91.00
2018-04-18T22:59:37.881Z,91.00
2018-04-18T23:02:06.600Z,91.00
2018-04-18T23:04:34.436Z,91.00
2018-04-18T23:07:02.403Z,91.50
2018-04-18T23:09:31.118Z,91.00
2018-04-18T23:11:59.107Z,91.00
2018-04-18T23:14:27.180Z,91.20
2018-04-18T23:16:55.166Z,91.50
2018-04-18T23:19:23.191Z,91.60
2018-04-18T23:21:51.062Z,91.70
2018-04-18T23:24:19.187Z,92.10
2018-04-18T23:26:47.117Z,92.70
2018-04-18T23:29:15.027Z,92.60
2018-04-18T23:31:42.993Z,93.20
2018-04-18T23:34:10.936Z,93.60
2018-04-18T23:36:38.821Z,93.70
2018-04-18T23:39:06.817Z,93.60
2018-04-18T23:41:35.584Z,94.00
2018-04-18T23:44:03.471Z,94.10
2018-04-18T23:46:32.435Z,94.60
2018-04-18T23:49:00.350Z,94.60
2018-04-18T23:51:28.247Z,94.90
2018-04-18T23:53:56.209Z,94.70
2018-04-18T23:56:24.227Z,94.60
2018-04-18T23:58:52.354Z,94.60
